Time;durP1;ratioP1;P1;durP2;ratioP2;P2;SDS_P1;SDS_P2;PMS_P1;PMS_P2;Temp;Humidity;BMP_temperature;BMP_pressure;BME280_temperature;BME280_humidity;BME280_pressure;Samples;Min_cycle;Max_cycle;Signal;HPM_P1;HPM_P2
2022/04/03 00:00:37;;;;;;;7.50;5.18;;;;;;;-1.20;69.37;102287.88;5031812;28;20040;-78
2022/04/03 00:03:04;;;;;;;8.75;5.20;;;;;;;-1.24;69.37;102291.31;5057740;28;20036;-78
2022/04/03 00:05:33;;;;;;;10.23;5.50;;;;;;;-1.26;69.06;102293.91;5022271;28;20049;-78
2022/04/03 00:07:59;;;;;;;9.23;5.85;;;;;;;-1.32;69.92;102291.31;5029943;28;20029;-78
2022/04/03 00:10:24;;;;;;;8.48;5.75;;;;;;;-1.33;69.41;102289.59;5028622;28;20017;-78
2022/04/03 00:12:50;;;;;;;10.25;5.50;;;;;;;-1.36;69.78;102289.63;5031045;28;20398;-78
2022/04/03 00:15:16;;;;;;;10.98;5.45;;;;;;;-1.38;69.91;102295.66;5030153;28;20029;-78
2022/04/03 00:17:43;;;;;;;9.68;5.47;;;;;;;-1.45;69.75;102289.63;5029961;28;20421;-78
2022/04/03 00:20:09;;;;;;;7.93;4.70;;;;;;;-1.48;70.35;102289.66;5031207;28;20033;-78
2022/04/03 00:22:35;;;;;;;6.93;4.82;;;;;;;-1.48;70.67;102286.19;5031454;28;20029;-78
2022/04/03 00:25:04;;;;;;;7.93;4.97;;;;;;;-1.50;70.50;102286.19;5030975;28;20390;-78
2022/04/03 00:27:29;;;;;;;8.93;4.70;;;;;;;-1.51;70.78;102288.78;5026756;28;20048;-78
2022/04/03 00:29:55;;;;;;;7.80;4.80;;;;;;;-1.54;70.88;102283.63;5011552;28;20022;-78
2022/04/03 00:32:21;;;;;;;8.00;4.28;;;;;;;-1.57;71.14;102281.91;5010569;28;20561;-78
2022/04/03 00:34:47;;;;;;;6.25;4.43;;;;;;;-1.56;71.50;102291.38;5010203;28;20052;-78
2022/04/03 00:37:13;;;;;;;7.47;4.55;;;;;;;-1.61;71.62;102290.50;5022480;28;20036;-79
2022/04/03 00:39:38;;;;;;;9.57;4.78;;;;;;;-1.62;72.06;102292.22;5028313;28;20029;-79
2022/04/03 00:42:06;;;;;;;7.90;4.75;;;;;;;-1.66;72.37;102290.50;5029939;28;20091;-78
2022/04/03 00:44:32;;;;;;;9.30;4.63;;;;;;;-1.65;71.88;102291.34;5029173;28;20018;-78
2022/04/03 00:46:58;;;;;;;6.78;4.68;;;;;;;-1.67;72.22;102293.94;5028648;28;20026;-78
2022/04/03 00:49:24;;;;;;;5.45;4.18;;;;;;;-1.70;72.40;102287.91;5029881;28;20025;-78
2022/04/03 00:51:50;;;;;;;6.72;4.00;;;;;;;-1.71;72.53;102293.94;5026946;28;21013;-78
2022/04/03 00:54:15;;;;;;;9.32;4.60;;;;;;;-1.74;72.62;102286.19;5026533;28;20473;-78
2022/04/03 00:56:40;;;;;;;9.35;4.38;;;;;;;-1.77;72.81;102278.47;5030100;28;20029;-78
2022/04/03 00:59:06;;;;;;;9.32;5.47;;;;;;;-1.79;72.49;102285.34;5029391;28;20076;-78
2022/04/03 01:01:32;;;;;;;12.02;6.07;;;;;;;-1.83;72.76;102292.22;5030113;28;20029;-78
2022/04/03 01:03:59;;;;;;;13.40;6.97;;;;;;;-1.87;72.69;102285.34;5047608;28;20031;-78
2022/04/03 01:06:24;;;;;;;10.57;6.07;;;;;;;-1.88;72.83;102287.94;5064621;28;20065;-78
2022/04/03 01:08:50;;;;;;;10.50;6.00;;;;;;;-1.90;73.10;102290.50;5031415;28;20026;-78
2022/04/03 01:11:21;;;;;;;7.88;5.25;;;;;;;-1.94;73.60;102286.22;5022281;28;20517;-78
2022/04/03 01:13:48;;;;;;;9.13;5.07;;;;;;;-1.98;73.42;102282.78;5027216;28;20381;-78
2022/04/03 01:16:14;;;;;;;6.50;4.78;;;;;;;-1.96;73.13;102281.06;5029041;28;20036;-78
2022/04/03 01:18:40;;;;;;;7.72;4.97;;;;;;;-1.97;73.75;102279.34;5037632;28;20060;-78
2022/04/03 01:21:05;;;;;;;8.95;5.10;;;;;;;-1.99;73.71;102281.06;5029996;28;20511;-78
2022/04/03 01:23:31;;;;;;;7.60;4.70;;;;;;;-2.01;73.57;102287.91;5034658;28;20025;-78
2022/04/03 01:25:56;;;;;;;7.93;4.68;;;;;;;-2.06;73.52;102284.47;5030259;28;20095;-78
2022/04/03 01:28:23;;;;;;;7.65;4.90;;;;;;;-2.08;73.83;102281.03;5029389;28;20037;-80
2022/04/03 01:30:49;;;;;;;9.02;5.22;;;;;;;-2.10;73.80;102282.75;5029897;28;20484;-80
2022/04/03 01:33:15;;;;;;;7.22;5.60;;;;;;;-2.13;74.03;102281.88;5029840;28;20057;-80
2022/04/03 01:35:41;;;;;;;8.25;5.45;;;;;;;-2.16;74.19;102279.28;5027882;28;20049;-80
2022/04/03 01:38:07;;;;;;;8.68;5.03;;;;;;;-2.18;74.58;102284.44;5030026;28;20469;-80
2022/04/03 01:40:39;;;;;;;9.77;5.60;;;;;;;-2.21;74.64;102280.16;5021883;28;20037;-80
2022/04/03 01:43:06;;;;;;;;;;;;;;;-2.08;73.03;102281.03;5028295;28;20363;-80
2022/04/03 01:45:32;;;;;;;9.05;5.40;;;;;;;-2.23;74.22;102281.00;5028407;28;19917;-80
2022/04/03 01:47:57;;;;;;;8.07;5.05;;;;;;;-2.26;75.13;102270.69;5028415;28;20474;-80
2022/04/03 01:50:23;;;;;;;10.80;5.18;;;;;;;-2.29;75.05;102275.84;5029377;28;20025;-80
2022/04/03 01:52:48;;;;;;;7.25;5.45;;;;;;;-2.33;75.04;102274.13;5029653;28;20033;-80
2022/04/03 01:55:14;;;;;;;10.30;5.70;;;;;;;-2.35;75.06;102271.53;5028503;28;20053;-81
2022/04/03 01:57:39;;;;;;;8.80;5.60;;;;;;;-2.34;75.12;102277.56;5019134;28;20024;-80
2022/04/03 02:00:06;;;;;;;9.65;5.20;;;;;;;-2.38;75.70;102281.00;5021930;28;20104;-80
2022/04/03 02:02:33;;;;;;;8.80;5.50;;;;;;;-2.42;76.10;102274.06;5023877;28;20458;-81
2022/04/03 02:04:58;;;;;;;10.13;5.88;;;;;;;-2.43;75.96;102275.78;5030268;28;20051;-80
2022/04/03 02:07:24;;;;;;;8.48;5.57;;;;;;;-2.44;75.80;102266.34;5027081;28;20029;-80
2022/04/03 02:09:50;;;;;;;9.25;5.47;;;;;;;-2.47;76.23;102260.31;5027701;28;20080;-80
2022/04/03 02:12:15;;;;;;;7.10;4.90;;;;;;;-2.48;76.64;102274.06;5026943;28;20922;-80
2022/04/03 02:14:40;;;;;;;8.98;5.53;;;;;;;-2.49;76.51;102269.78;5028311;28;20428;-81
2022/04/03 02:17:07;;;;;;;8.35;5.65;;;;;;;-2.52;76.73;102268.03;5027373;28;20067;-80
2022/04/03 02:19:32;;;;;;;9.98;5.90;;;;;;;-2.57;76.83;102265.47;5060621;28;20432;-80
2022/04/03 02:21:57;;;;;;;7.50;5.20;;;;;;;-2.55;76.62;102263.75;5060666;28;20025;-81
2022/04/03 02:24:23;;;;;;;9.73;6.20;;;;;;;-2.57;76.28;102262.88;5027320;28;20087;-81
2022/04/03 02:26:48;;;;;;;8.82;5.60;;;;;;;-2.58;76.50;102258.59;5028651;28;20460;-80
2022/04/03 02:29:14;;;;;;;7.68;5.63;;;;;;;-2.61;77.08;102262.88;5022357;28;20060;-80
2022/04/03 02:31:39;;;;;;;12.10;5.85;;;;;;;-2.62;76.98;102267.16;5028156;28;20068;-80
2022/04/03 02:34:05;;;;;;;9.68;5.57;;;;;;;-2.64;76.82;102262.88;5028267;28;20049;-81
2022/04/03 02:36:30;;;;;;;10.63;5.90;;;;;;;-2.65;76.88;102262.00;5028930;28;20021;-80
2022/04/03 02:38:56;;;;;;;8.02;5.75;;;;;;;-2.69;76.99;102265.44;5027349;28;20030;-81
2022/04/03 02:41:21;;;;;;;9.70;6.00;;;;;;;-2.71;77.25;102256.84;5029414;28;20041;-81
2022/04/03 02:43:47;;;;;;;8.52;5.45;;;;;;;-2.72;76.93;102265.41;5029104;28;20041;-80
2022/04/03 02:46:12;;;;;;;7.93;5.63;;;;;;;-2.76;77.44;102263.69;5013231;28;20037;-81
2022/04/03 02:48:37;;;;;;;8.32;6.10;;;;;;;-2.78;77.16;102270.56;5024552;28;20017;-80
2022/04/03 02:51:03;;;;;;;9.63;5.68;;;;;;;-2.81;77.74;102269.66;5009470;28;20061;-80
2022/04/03 02:53:28;;;;;;;10.40;6.18;;;;;;;-2.81;77.60;102267.06;5024297;28;20022;-81
2022/04/03 02:55:54;;;;;;;10.30;5.97;;;;;;;-2.84;77.54;102270.50;5024725;28;20109;-80
2022/04/03 02:58:19;;;;;;;8.98;6.13;;;;;;;-2.84;77.47;102275.66;5011505;28;20033;-80
2022/04/03 03:00:46;;;;;;;7.13;6.05;;;;;;;-2.87;78.20;102275.63;5029113;28;20385;-80
2022/04/03 03:03:11;;;;;;;9.57;6.07;;;;;;;-2.89;77.99;102277.34;5031799;28;20029;-80
2022/04/03 03:05:38;;;;;;;9.18;6.00;;;;;;;-2.89;78.52;102270.50;5029018;28;20668;-81
2022/04/03 03:08:04;;;;;;;10.82;6.50;;;;;;;-2.92;77.87;102272.19;5036059;28;20036;-80
2022/04/03 03:10:30;;;;;;;10.13;6.05;;;;;;;-2.92;78.06;102280.78;5029618;28;20029;-80
2022/04/03 03:12:55;;;;;;;11.25;6.63;;;;;;;-2.91;78.42;102276.50;5046327;28;20064;-80
2022/04/03 03:15:21;;;;;;;10.75;6.25;;;;;;;-2.94;78.24;102273.91;5031372;28;20033;-80
2022/04/03 03:17:47;;;;;;;9.13;6.60;;;;;;;-2.94;78.50;102285.06;5031677;28;20026;-80
2022/04/03 03:20:12;;;;;;;12.30;6.57;;;;;;;-2.95;78.33;102279.91;5031276;28;20028;-80
2022/04/03 03:22:38;;;;;;;10.57;6.57;;;;;;;-2.97;78.77;102279.03;5030515;28;20079;-80
2022/04/03 03:25:06;;;;;;;9.02;6.10;;;;;;;-3.01;78.66;102278.16;5030505;28;20048;-78
2022/04/03 03:27:36;;;;;;;9.00;6.60;;;;;;;-3.01;78.88;102282.44;5030089;28;20033;-78
2022/04/03 03:30:03;;;;;;;8.32;6.57;;;;;;;-3.02;78.62;102280.72;5031169;28;20076;-77
2022/04/03 03:32:28;;;;;;;11.32;7.20;;;;;;;-3.06;78.66;102284.16;5026057;28;20025;-80
2022/04/03 03:34:54;;;;;;;9.40;6.80;;;;;;;-3.07;78.98;102282.44;5029301;28;20115;-78
2022/04/03 03:37:20;;;;;;;7.43;6.03;;;;;;;-3.11;78.89;102285.84;5031593;28;20026;-78
2022/04/03 03:39:45;;;;;;;10.48;6.90;;;;;;;-3.10;79.03;102288.41;5030091;28;20459;-78
2022/04/03 03:42:11;;;;;;;11.05;6.68;;;;;;;-3.13;79.12;102282.41;5029248;28;20033;-78
2022/04/03 03:44:40;;;;;;;12.07;6.93;;;;;;;-3.16;79.24;102294.41;5030913;28;20026;-78
2022/04/03 03:47:07;;;;;;;10.45;6.97;;;;;;;-3.18;79.16;102288.38;5030947;28;20025;-78
2022/04/03 03:49:34;;;;;;;12.05;6.82;;;;;;;-3.20;79.12;102287.50;5030155;28;20022;-78
2022/04/03 03:52:00;;;;;;;10.10;6.97;;;;;;;-3.21;79.09;102284.91;5015501;28;20388;-77
2022/04/03 03:54:25;;;;;;;10.10;7.07;;;;;;;-3.22;78.97;102286.63;5019242;28;20017;-78
2022/04/03 03:57:03;;;;;;;10.40;6.65;;;;;;;-3.23;79.00;102287.47;5030494;28;20546;-77
2022/04/03 03:59:38;;;;;;;9.77;6.55;;;;;;;-3.26;79.19;102286.59;5031760;28;20483;-78
2022/04/03 04:02:13;;;;;;;14.50;7.00;;;;;;;-3.29;79.26;102284.88;5036689;28;20025;-77
2022/04/03 04:04:39;;;;;;;10.02;6.85;;;;;;;-3.29;79.67;102287.44;5037731;28;20504;-77
2022/04/03 04:07:13;;;;;;;8.65;6.75;;;;;;;-3.30;79.65;102290.84;5022459;28;20033;-79
2022/04/03 04:09:39;;;;;;;12.93;7.05;;;;;;;-3.32;79.33;102291.69;5057121;28;20049;-78
2022/04/03 04:12:06;;;;;;;9.05;7.25;;;;;;;-3.37;79.80;102294.25;5039959;28;20028;-78
2022/04/03 04:14:35;;;;;;;10.10;6.85;;;;;;;-3.38;79.97;102282.25;5026678;28;20033;-78
2022/04/03 04:17:08;;;;;;;10.63;7.28;;;;;;;-3.39;80.31;102284.81;5029366;28;20029;-78
2022/04/03 04:19:57;;;;;;;10.88;7.32;;;;;;;-3.38;80.39;102292.53;5050045;28;20045;-78
2022/04/03 04:22:25;;;;;;;10.38;7.18;;;;;;;-3.41;80.17;102291.66;5028123;28;20481;-78
2022/04/03 04:24:51;;;;;;;11.02;7.13;;;;;;;-3.42;80.25;102289.94;5028985;28;20142;-78
2022/04/03 04:27:25;;;;;;;12.40;7.13;;;;;;;-3.45;79.90;102287.34;5029464;28;20561;-78
2022/04/03 04:29:51;;;;;;;11.05;7.45;;;;;;;-3.49;79.94;102284.75;5028703;28;20139;-78
2022/04/03 04:32:17;;;;;;;11.48;7.18;;;;;;;-3.51;80.28;102290.72;5029896;28;20477;-78
2022/04/03 04:34:42;;;;;;;8.77;7.00;;;;;;;-3.51;80.41;102295.88;5029698;28;20084;-80
2022/04/03 04:37:08;;;;;;;10.43;7.13;;;;;;;-3.50;80.83;102298.47;5028540;28;20033;-80
2022/04/03 04:39:33;;;;;;;9.25;6.78;;;;;;;-3.53;80.52;102288.16;5056951;28;20045;-80
2022/04/03 04:41:58;;;;;;;10.35;7.13;;;;;;;-3.51;81.17;102301.03;5028763;28;20079;-80
2022/04/03 04:44:35;;;;;;;9.88;7.18;;;;;;;-3.48;81.34;102301.03;5029492;28;20614;-78
2022/04/03 04:47:04;;;;;;;9.25;7.10;;;;;;;-3.50;81.00;102301.03;5027933;28;20030;-78
2022/04/03 04:49:33;;;;;;;10.52;7.25;;;;;;;-3.54;80.97;102306.16;5029743;28;20034;-78
2022/04/03 04:51:58;;;;;;;13.05;7.38;;;;;;;-3.57;81.20;102306.13;5029184;28;20047;-78
2022/04/03 04:54:25;;;;;;;11.65;7.10;;;;;;;-3.61;81.43;102301.78;5029415;28;20022;-78
2022/04/03 04:56:51;;;;;;;12.70;7.28;;;;;;;-3.63;81.95;102301.75;5027645;28;20031;-78
2022/04/03 04:59:17;;;;;;;11.07;7.18;;;;;;;-3.61;81.94;102306.91;5029507;28;20026;-78
2022/04/03 05:01:42;;;;;;;11.27;7.57;;;;;;;-3.60;81.77;102306.06;5029892;28;20477;-78
2022/04/03 05:04:08;;;;;;;8.15;7.00;;;;;;;-3.59;81.90;102312.97;5032603;28;20025;-78
2022/04/03 05:06:34;;;;;;;11.65;7.30;;;;;;;-3.62;81.96;102323.19;5029264;28;20558;-78
2022/04/03 05:09:03;;;;;;;12.73;7.10;;;;;;;-3.60;81.92;102322.41;5028266;28;20029;-78
2022/04/03 05:11:28;;;;;;;8.45;7.07;;;;;;;-3.62;82.21;102323.19;5045827;28;20030;-77
2022/04/03 05:13:54;;;;;;;12.52;7.68;;;;;;;-3.63;82.25;102321.47;5029344;28;20017;-78
2022/04/03 05:16:20;;;;;;;13.75;7.60;;;;;;;-3.63;82.51;102324.06;5028580;28;20029;-78
2022/04/03 05:18:46;;;;;;;10.90;7.18;;;;;;;-3.65;82.52;102325.75;5029069;28;20040;-78
2022/04/03 05:21:11;;;;;;;9.48;7.43;;;;;;;-3.66;82.69;102329.16;5029375;28;20079;-78
2022/04/03 05:23:38;;;;;;;11.77;7.85;;;;;;;-3.66;82.88;102331.75;5028778;28;20478;-78
2022/04/03 05:26:05;;;;;;;12.90;7.82;;;;;;;-3.66;82.71;102326.59;5027794;28;20033;-78
2022/04/03 05:28:35;;;;;;;13.32;7.40;;;;;;;-3.66;83.20;102331.75;5024775;28;20044;-78
2022/04/03 05:31:02;;;;;;;9.60;7.72;;;;;;;-3.68;83.13;102324.03;5027403;28;20131;-79
2022/04/03 05:33:27;;;;;;;11.98;8.18;;;;;;;-3.64;82.44;102332.63;5028352;28;20489;-77
2022/04/03 05:35:53;;;;;;;13.27;8.02;;;;;;;-3.63;83.12;102331.78;5027849;28;20029;-78
2022/04/03 05:38:18;;;;;;;8.18;7.15;;;;;;;-3.62;82.98;102338.63;5028421;28;20456;-78
2022/04/03 05:40:44;;;;;;;11.82;7.35;;;;;;;-3.57;82.86;102343.00;5027972;28;20111;-78
2022/04/03 05:43:09;;;;;;;11.40;7.63;;;;;;;-3.57;82.97;102337.00;5024077;28;20029;-78
2022/04/03 05:45:35;;;;;;;12.30;8.13;;;;;;;-3.54;82.32;102347.31;5020735;28;20108;-78
2022/04/03 05:48:03;;;;;;;10.23;8.50;;;;;;;-3.52;83.00;102345.59;5025368;28;20032;-78
2022/04/03 05:50:29;;;;;;;10.23;8.10;;;;;;;-3.46;83.11;102345.66;5025517;28;20025;-78
2022/04/03 05:52:54;;;;;;;12.57;7.93;;;;;;;-3.45;83.35;102342.22;5026797;28;20032;-78
2022/04/03 05:55:21;;;;;;;10.55;7.70;;;;;;;-3.40;83.48;102347.41;5021461;28;20026;-78
2022/04/03 05:57:48;;;;;;;8.80;7.72;;;;;;;-3.36;83.54;102347.44;5026153;28;20029;-79
2022/04/03 06:00:15;;;;;;;12.68;7.78;;;;;;;-3.32;83.67;102344.03;5020016;28;20037;-78
2022/04/03 06:02:50;;;;;;;9.15;7.47;;;;;;;-3.25;83.33;102345.78;5009882;28;20030;-78
2022/04/03 06:05:21;;;;;;;12.10;7.85;;;;;;;-3.22;83.35;102355.25;5025442;28;20489;-78
2022/04/03 06:07:47;;;;;;;14.52;7.93;;;;;;;-3.17;83.71;102345.88;5024025;28;20026;-79
2022/04/03 06:10:14;;;;;;;12.75;8.00;;;;;;;-3.16;83.63;102345.88;5025781;28;20079;-78
2022/04/03 06:13:02;;;;;;;12.82;7.82;;;;;;;-3.07;83.69;102359.66;5028144;28;20117;-78
2022/04/03 06:15:35;;;;;;;10.93;7.63;;;;;;;-3.02;83.71;102360.53;5017945;28;20099;-79
2022/04/03 06:18:05;;;;;;;14.93;8.35;;;;;;;-2.99;84.06;102352.84;5026236;28;20037;-78
2022/04/03 06:20:31;;;;;;;11.82;7.75;;;;;;;-2.92;84.23;102364.88;5026246;28;20144;-78
2022/04/03 06:22:57;;;;;;;13.52;8.55;;;;;;;-2.88;84.35;102364.03;5026910;28;20112;-79
2022/04/03 06:25:23;;;;;;;11.68;8.13;;;;;;;-2.85;84.19;102364.06;5028134;28;20025;-79
2022/04/03 06:27:50;;;;;;;11.35;7.97;;;;;;;-2.75;84.31;102362.41;5026718;28;20029;-79
2022/04/03 06:30:16;;;;;;;12.50;8.05;;;;;;;-2.69;84.32;102362.44;5026760;28;20074;-79
2022/04/03 06:32:41;;;;;;;13.48;8.25;;;;;;;-2.63;84.30;102363.34;5028650;28;20427;-79
2022/04/03 06:35:08;;;;;;;12.45;8.00;;;;;;;-2.59;84.36;102362.50;5026904;28;20049;-79
2022/04/03 06:37:34;;;;;;;13.57;8.50;;;;;;;-2.53;84.48;102359.94;5024646;28;20030;-79
2022/04/03 06:39:59;;;;;;;10.73;8.18;;;;;;;-2.47;84.57;102359.09;5028117;28;20115;-79
2022/04/03 06:42:25;;;;;;;13.48;8.90;;;;;;;-2.43;84.63;102354.81;5029085;28;20030;-79
2022/04/03 06:44:52;;;;;;;11.05;8.98;;;;;;;-2.36;84.77;102351.44;5034564;28;20033;-79
2022/04/03 06:47:18;;;;;;;10.55;8.30;;;;;;;-2.31;84.75;102347.16;5030313;28;20029;-79
2022/04/03 06:49:43;;;;;;;11.15;8.57;;;;;;;-2.25;84.52;102349.75;5032467;28;20028;-78
2022/04/03 06:52:12;;;;;;;12.30;9.02;;;;;;;-2.15;84.80;102359.22;5029584;28;20021;-78
2022/04/03 06:54:37;;;;;;;15.55;9.57;;;;;;;-1.98;85.46;102354.13;5031712;28;20025;-78
2022/04/03 06:57:03;;;;;;;13.32;8.98;;;;;;;-1.92;85.23;102347.25;5030744;28;20044;-78
2022/04/03 06:59:29;;;;;;;12.73;9.40;;;;;;;-1.81;85.39;102351.56;5031041;28;20025;-79
2022/04/03 07:01:55;;;;;;;11.80;9.07;;;;;;;-1.71;84.92;102348.97;5063815;28;20092;-79
2022/04/03 07:04:21;;;;;;;15.63;10.45;;;;;;;-1.63;84.83;102359.31;5032180;28;20600;-79
2022/04/03 07:06:46;;;;;;;12.70;10.02;;;;;;;-1.55;84.81;102355.03;5026856;28;20024;-73
2022/04/03 07:09:11;;;;;;;14.48;11.02;;;;;;;-1.47;84.77;102357.59;5026755;28;20565;-73
2022/04/03 07:11:37;;;;;;;14.07;10.50;;;;;;;-1.36;84.79;102356.72;5028993;28;20021;-78
2022/04/03 07:14:03;;;;;;;15.18;10.85;;;;;;;-1.27;85.17;102351.56;5033702;28;20469;-74
2022/04/03 07:16:29;;;;;;;16.13;10.73;;;;;;;-1.18;85.31;102357.59;5037845;28;20044;-73
2022/04/03 07:18:54;;;;;;;16.48;11.63;;;;;;;-1.08;85.47;102367.03;5043594;28;20026;-72
2022/04/03 07:21:20;;;;;;;15.20;11.18;;;;;;;-0.96;85.56;102362.72;5026463;28;20280;-73
2022/04/03 07:23:45;;;;;;;15.23;11.38;;;;;;;-0.86;86.19;102360.09;5029247;28;20045;-73
2022/04/03 07:26:12;;;;;;;14.82;11.40;;;;;;;-0.74;85.55;102358.38;5030017;28;20073;-73
2022/04/03 07:28:38;;;;;;;14.10;12.13;;;;;;;-0.59;86.04;102361.75;5012640;28;20657;-72
2022/04/03 07:31:03;;;;;;;15.02;13.43;;;;;;;-0.47;86.15;102359.13;5030445;28;20025;-73
2022/04/03 07:33:28;;;;;;;17.58;14.05;;;;;;;-0.27;86.77;102369.38;5031035;28;20359;-72
2022/04/03 07:35:54;;;;;;;16.17;13.60;;;;;;;-0.15;86.53;102370.19;5031377;28;20029;-73
2022/04/03 07:38:20;;;;;;;16.08;13.63;;;;;;;0.03;85.74;102368.38;5029399;28;20366;-73
2022/04/03 07:40:46;;;;;;;16.60;13.35;;;;;;;0.19;85.31;102373.44;5030026;28;20079;-73
2022/04/03 07:43:16;;;;;;;15.13;12.52;;;;;;;0.34;85.01;102367.28;5029630;28;20040;-73
2022/04/03 07:45:42;;;;;;;15.02;11.80;;;;;;;0.53;84.02;102365.44;5047626;28;20029;-73
2022/04/03 07:48:08;;;;;;;13.55;11.65;;;;;;;0.74;84.29;102364.38;5029876;28;20113;-72
2022/04/03 07:50:34;;;;;;;12.68;11.25;;;;;;;0.84;83.35;102361.72;5017504;28;20751;-72
2022/04/03 07:52:59;;;;;;;13.05;10.13;;;;;;;0.99;82.78;102365.88;5012835;28;20042;-72
2022/04/03 07:55:25;;;;;;;11.15;9.27;;;;;;;1.13;82.46;102368.31;5011010;28;20057;-73
2022/04/03 07:57:50;;;;;;;14.02;9.02;;;;;;;1.31;81.51;102367.28;5011328;28;20379;-72
2022/04/03 08:00:16;;;;;;;17.30;9.23;;;;;;;1.44;81.20;102368.84;5010309;28;20466;-72
2022/04/03 08:02:42;;;;;;;10.93;8.82;;;;;;;1.61;80.68;102363.47;5009663;28;20468;-73
2022/04/03 08:05:08;;;;;;;10.38;6.80;;;;;;;1.72;79.66;102367.66;5008739;28;20113;-72
2022/04/03 08:07:45;;;;;;;10.88;7.20;;;;;;;1.92;79.18;102364.78;5010070;28;20116;-73
2022/04/03 08:10:13;;;;;;;10.73;6.05;;;;;;;2.06;77.50;102359.41;5008367;28;20033;-72
2022/04/03 08:12:41;;;;;;;9.80;5.70;;;;;;;2.23;75.85;102361.75;5009719;28;20026;-72
2022/04/03 08:15:08;;;;;;;7.22;4.50;;;;;;;2.37;74.59;102363.22;5013423;28;20044;-73
2022/04/03 08:17:34;;;;;;;6.45;4.10;;;;;;;2.57;73.03;102372.47;5017762;28;20042;-80
2022/04/03 08:20:02;;;;;;;9.10;3.85;;;;;;;2.73;71.42;102364.38;5009110;28;20033;-80
2022/04/03 08:22:28;;;;;;;5.80;3.70;;;;;;;2.87;71.11;102366.75;5041912;28;20447;-80
2022/04/03 08:24:54;;;;;;;5.20;2.40;;;;;;;3.00;68.27;102368.25;5015679;28;20084;-80
2022/04/03 08:27:20;;;;;;;3.42;2.63;;;;;;;3.14;67.41;102379.25;5013685;28;20037;-80
2022/04/03 08:29:45;;;;;;;5.43;2.65;;;;;;;3.27;67.81;102368.63;5013105;28;20029;-80
2022/04/03 08:32:11;;;;;;;4.68;2.22;;;;;;;3.38;67.13;102366.66;5009921;28;20433;-81
2022/04/03 08:34:37;;;;;;;4.47;2.17;;;;;;;3.54;66.22;102378.47;5009487;28;20418;-81
2022/04/03 08:37:02;;;;;;;5.65;2.90;;;;;;;3.68;66.72;102378.22;5009548;28;20052;-81
2022/04/03 08:39:28;;;;;;;5.00;2.45;;;;;;;3.84;66.78;102374.38;5008430;28;20030;-80
2022/04/03 08:41:55;;;;;;;4.95;2.38;;;;;;;3.96;65.21;102368.91;5009954;28;20529;-80
2022/04/03 08:44:21;;;;;;;7.15;2.75;;;;;;;4.11;65.39;102367.72;5008695;28;20026;-81
2022/04/03 08:46:48;;;;;;;7.07;3.33;;;;;;;4.19;64.44;102360.59;5001882;28;20033;-81
2022/04/03 08:49:15;;;;;;;8.70;2.83;;;;;;;4.34;64.97;102369.78;5001635;28;20055;-80
2022/04/03 08:51:41;;;;;;;5.90;2.63;;;;;;;4.51;64.62;102374.63;5005835;28;20034;-81
2022/04/03 08:54:08;;;;;;;6.28;2.63;;;;;;;4.64;64.46;102363.00;5006148;28;20021;-81
2022/04/03 08:56:33;;;;;;;4.43;2.65;;;;;;;4.76;63.84;102361.81;5013809;28;20035;-80
2022/04/03 08:58:59;;;;;;;5.82;2.80;;;;;;;4.88;62.76;102367.59;5010659;28;20469;-81
2022/04/03 09:01:25;;;;;;;3.92;2.88;;;;;;;5.02;63.24;102370.69;4991435;28;20602;-80
2022/04/03 09:03:51;;;;;;;4.20;2.50;;;;;;;5.14;61.95;102368.63;5001269;28;20461;-80
2022/04/03 09:06:21;;;;;;;4.70;2.75;;;;;;;5.25;62.13;102366.63;5003758;28;20037;-80
2022/04/03 09:08:48;;;;;;;4.70;2.58;;;;;;;5.41;61.62;102367.03;5039605;28;20048;-80
2022/04/03 09:11:15;;;;;;;6.82;2.50;;;;;;;5.49;60.15;102365.91;5003869;28;20080;-80
2022/04/03 09:13:41;;;;;;;5.13;2.13;;;;;;;5.60;59.05;102357.78;4990848;28;20045;-80
2022/04/03 09:16:08;;;;;;;4.05;2.47;;;;;;;5.73;59.17;102360.91;4990457;28;20496;-81
2022/04/03 09:18:44;;;;;;;5.72;2.80;;;;;;;5.81;58.39;102353.69;4990702;28;20475;-81
2022/04/03 09:21:20;;;;;;;3.97;2.50;;;;;;;6.00;59.56;102359.22;4990951;28;20026;-81
2022/04/03 09:24:06;;;;;;;5.57;2.67;;;;;;;6.14;59.99;102355.31;4991747;28;20454;-81
2022/04/03 09:26:33;;;;;;;5.82;2.53;;;;;;;6.23;57.54;102348.94;4991494;28;20041;-81
2022/04/03 09:29:14;;;;;;;6.75;2.40;;;;;;;6.31;58.61;102346.06;4991183;28;20429;-81
2022/04/03 09:31:40;;;;;;;3.00;2.20;;;;;;;6.36;56.78;102344.16;4988532;28;20038;-81
2022/04/03 09:34:12;;;;;;;3.28;2.50;;;;;;;6.51;58.33;102343.69;4994929;28;20112;-81
2022/04/03 09:36:39;;;;;;;3.58;2.20;;;;;;;6.58;57.17;102339.94;4995877;28;20044;-81
2022/04/03 09:39:16;;;;;;;7.45;2.40;;;;;;;6.77;57.04;102340.16;4993394;28;20069;-81
2022/04/03 09:42:00;;;;;;;3.88;2.28;;;;;;;6.89;57.70;102345.00;4993203;28;20026;-81
2022/04/03 09:44:37;;;;;;;5.93;2.00;;;;;;;6.94;56.33;102345.69;5004965;28;20029;-81
2022/04/03 09:47:21;;;;;;;5.72;2.20;;;;;;;6.97;56.64;102347.34;5006537;28;20052;-82
2022/04/03 09:49:58;;;;;;;3.80;1.95;;;;;;;7.01;55.93;102343.72;5007578;28;20033;-81
2022/04/03 09:52:45;;;;;;;2.17;1.45;;;;;;;7.08;56.06;102330.34;5009067;28;20100;-82
2022/04/03 09:55:20;;;;;;;4.72;1.40;;;;;;;7.22;53.83;102332.50;5007710;28;20030;-81
2022/04/03 09:57:47;;;;;;;2.67;1.25;;;;;;;7.31;52.41;102324.31;5007891;28;20038;-81
2022/04/03 10:00:33;;;;;;;2.25;1.50;;;;;;;7.36;52.67;102319.75;4995254;28;20105;-81
2022/04/03 10:03:00;;;;;;;7.20;1.60;;;;;;;7.35;51.16;102318.03;5001753;28;20116;-81
2022/04/03 10:05:30;;;;;;;4.25;1.30;;;;;;;7.40;52.06;102316.09;5009293;28;20029;-82
2022/04/03 10:08:00;;;;;;;3.38;1.48;;;;;;;7.48;51.93;102318.44;5006879;28;20053;-81
2022/04/03 10:10:30;;;;;;;4.05;1.50;;;;;;;7.50;50.43;102316.59;5007787;28;20076;-81
2022/04/03 10:12:56;;;;;;;2.08;1.27;;;;;;;7.52;49.35;102314.78;5008895;28;20026;-81
2022/04/03 10:15:26;;;;;;;2.53;1.30;;;;;;;7.47;49.56;102317.59;5006737;28;20091;-81
2022/04/03 10:17:52;;;;;;;2.83;1.35;;;;;;;7.48;49.12;102303.56;5005479;28;20022;-81
2022/04/03 10:20:18;;;;;;;2.78;1.30;;;;;;;7.54;48.78;102305.09;5007117;28;20033;-81
2022/04/03 10:22:47;;;;;;;3.70;1.27;;;;;;;7.58;49.29;102292.75;5006450;28;20390;-81
2022/04/03 10:25:18;;;;;;;4.35;1.50;;;;;;;7.57;48.56;102299.75;5006792;28;20512;-81
2022/04/03 10:27:44;;;;;;;3.15;1.52;;;;;;;7.51;47.93;102300.84;5009449;28;20064;-80
2022/04/03 10:30:10;;;;;;;3.45;1.58;;;;;;;7.53;48.85;102296.41;5007279;28;20081;-80
2022/04/03 10:32:40;;;;;;;2.80;1.20;;;;;;;7.69;49.78;102291.44;5009769;28;20030;-80
2022/04/03 10:35:08;;;;;;;2.97;1.40;;;;;;;7.81;50.14;102290.94;5008997;28;20490;-80
2022/04/03 10:37:40;;;;;;;3.15;1.20;;;;;;;7.92;50.31;102292.28;5001188;28;20077;-80
2022/04/03 10:40:15;;;;;;;3.00;1.40;;;;;;;8.00;48.73;102295.44;5004713;28;20032;-79
2022/04/03 10:43:01;;;;;;;2.65;1.20;;;;;;;8.04;49.93;102287.44;4999543;28;20053;-80
2022/04/03 10:45:31;;;;;;;3.17;1.40;;;;;;;8.02;47.46;102291.88;4994851;28;20034;-80
2022/04/03 10:48:21;;;;;;;3.22;1.40;;;;;;;8.05;49.42;102291.75;4999041;28;20042;-80
2022/04/03 10:51:01;;;;;;;4.25;1.40;;;;;;;8.10;48.07;102286.31;4995302;28;20033;-79
2022/04/03 10:53:31;;;;;;;3.00;1.40;;;;;;;8.12;47.20;102284.50;4994279;28;20057;-80
2022/04/03 10:55:59;;;;;;;4.38;1.70;;;;;;;8.09;47.97;102284.63;5006872;28;20080;-80
2022/04/03 10:58:38;;;;;;;3.10;1.40;;;;;;;8.10;49.46;102276.69;4989717;28;20048;-79
2022/04/03 11:01:04;;;;;;;4.13;1.60;;;;;;;8.04;49.38;102276.94;5001052;28;20032;-79
2022/04/03 11:03:32;;;;;;;4.43;1.70;;;;;;;7.98;49.19;102277.16;5010913;28;20369;-79
2022/04/03 11:06:17;;;;;;;3.13;1.70;;;;;;;7.95;48.78;102277.28;4991791;28;20026;-79
2022/04/03 11:08:53;;;;;;;4.78;1.60;;;;;;;7.85;48.99;102274.19;4999462;28;20030;-79
2022/04/03 11:11:30;;;;;;;4.10;1.60;;;;;;;7.86;49.76;102272.44;4999265;28;20038;-79
2022/04/03 11:13:56;;;;;;;1.85;1.30;;;;;;;7.83;48.65;102275.16;4992972;28;20022;-79
2022/04/03 11:16:22;;;;;;;3.08;1.50;;;;;;;7.89;48.46;102267.06;5000858;28;20041;-79
2022/04/03 11:18:51;;;;;;;2.67;1.40;;;;;;;7.95;48.74;102263.34;4987835;28;20457;-79
2022/04/03 11:21:33;;;;;;;1.92;1.20;;;;;;;7.99;48.71;102257.91;4997113;28;20022;-82
2022/04/03 11:24:06;;;;;;;4.57;1.50;;;;;;;8.05;48.57;102262.06;5004452;28;20422;-80
2022/04/03 11:26:32;;;;;;;4.00;1.50;;;;;;;8.05;47.62;102260.31;4995168;28;20359;-80